sensor_id;sensor_type;location;lat;lon;timestamp;temperature;humidity
65559;DHT22;52203;51.998;5.140;2024-03-06T00:02:11;13.80;118.99
65559;DHT22;52203;51.998;5.140;2024-03-06T00:04:37;13.78;118.99
65559;DHT22;52203;51.998;5.140;2024-03-06T00:07:03;13.79;118.99
65559;DHT22;52203;51.998;5.140;2024-03-06T00:09:29;13.78;118.99
65559;DHT22;52203;51.998;5.140;2024-03-06T00:11:55;13.78;118.99
65559;DHT22;52203;51.998;5.140;2024-03-06T00:14:22;13.78;118.99
65559;DHT22;52203;51.998;5.140;2024-03-06T00:16:48;13.75;118.99
65559;DHT22;52203;51.998;5.140;2024-03-06T00:19:18;13.76;118.99
65559;DHT22;52203;51.998;5.140;2024-03-06T00:21:44;13.74;118.99
65559;DHT22;52203;51.998;5.140;2024-03-06T00:24:14;13.71;118.99
65559;DHT22;52203;51.998;5.140;2024-03-06T00:26:44;13.71;118.99
65559;DHT22;52203;51.998;5.140;2024-03-06T00:29:10;13.70;118.99
65559;DHT22;52203;51.998;5.140;2024-03-06T00:31:36;13.70;118.99
65559;DHT22;52203;51.998;5.140;2024-03-06T00:34:02;13.71;118.99
65559;DHT22;52203;51.998;5.140;2024-03-06T00:36:28;13.70;118.99
65559;DHT22;52203;51.998;5.140;2024-03-06T00:38:53;13.69;118.99
65559;DHT22;52203;51.998;5.140;2024-03-06T00:41:19;13.68;118.99
65559;DHT22;52203;51.998;5.140;2024-03-06T00:43:44;13.66;118.99
65559;DHT22;52203;51.998;5.140;2024-03-06T00:46:10;13.68;118.99
65559;DHT22;52203;51.998;5.140;2024-03-06T00:48:36;13.66;118.99
65559;DHT22;52203;51.998;5.140;2024-03-06T00:51:03;13.65;118.99
65559;DHT22;52203;51.998;5.140;2024-03-06T00:53:28;13.62;118.99
65559;DHT22;52203;51.998;5.140;2024-03-06T00:55:53;13.64;118.99
65559;DHT22;52203;51.998;5.140;2024-03-06T00:58:19;13.63;118.99
65559;DHT22;52203;51.998;5.140;2024-03-06T01:00:44;13.62;118.99
65559;DHT22;52203;51.998;5.140;2024-03-06T01:03:10;13.62;118.99
65559;DHT22;52203;51.998;5.140;2024-03-06T01:05:36;13.61;118.99
65559;DHT22;52203;51.998;5.140;2024-03-06T01:08:01;13.61;118.99
65559;DHT22;52203;51.998;5.140;2024-03-06T01:10:27;13.60;118.99
65559;DHT22;52203;51.998;5.140;2024-03-06T01:12:53;13.60;118.99
65559;DHT22;52203;51.998;5.140;2024-03-06T01:15:18;13.61;118.99
65559;DHT22;52203;51.998;5.140;2024-03-06T01:17:44;13.59;118.99
65559;DHT22;52203;51.998;5.140;2024-03-06T01:20:10;13.58;118.99
65559;DHT22;52203;51.998;5.140;2024-03-06T01:22:35;13.58;118.99
65559;DHT22;52203;51.998;5.140;2024-03-06T01:25:01;13.56;118.99
65559;DHT22;52203;51.998;5.140;2024-03-06T01:27:27;13.56;118.99
65559;DHT22;52203;51.998;5.140;2024-03-06T01:29:53;13.55;118.99
65559;DHT22;52203;51.998;5.140;2024-03-06T01:32:18;13.56;118.99
65559;DHT22;52203;51.998;5.140;2024-03-06T01:34:44;13.55;118.99
65559;DHT22;52203;51.998;5.140;2024-03-06T01:37:09;13.54;118.99
65559;DHT22;52203;51.998;5.140;2024-03-06T01:39:35;13.53;118.99
65559;DHT22;52203;51.998;5.140;2024-03-06T01:42:01;13.53;118.99
65559;DHT22;52203;51.998;5.140;2024-03-06T01:44:27;13.53;118.99
65559;DHT22;52203;51.998;5.140;2024-03-06T01:46:52;13.52;118.99
65559;DHT22;52203;51.998;5.140;2024-03-06T01:49:19;13.50;118.99
65559;DHT22;52203;51.998;5.140;2024-03-06T01:51:50;13.50;118.99
65559;DHT22;52203;51.998;5.140;2024-03-06T01:54:17;13.50;118.99
65559;DHT22;52203;51.998;5.140;2024-03-06T01:56:47;13.50;118.99
65559;DHT22;52203;51.998;5.140;2024-03-06T01:59:15;13.51;118.99
65559;DHT22;52203;51.998;5.140;2024-03-06T02:01:42;13.50;118.99
65559;DHT22;52203;51.998;5.140;2024-03-06T02:04:08;13.48;118.99
65559;DHT22;52203;51.998;5.140;2024-03-06T02:06:38;13.49;118.99
65559;DHT22;52203;51.998;5.140;2024-03-06T02:09:04;13.48;118.99
65559;DHT22;52203;51.998;5.140;2024-03-06T02:11:29;13.47;118.99
65559;DHT22;52203;51.998;5.140;2024-03-06T02:13:55;13.47;118.99
65559;DHT22;52203;51.998;5.140;2024-03-06T02:16:21;13.47;118.99
65559;DHT22;52203;51.998;5.140;2024-03-06T02:18:53;13.48;118.99
65559;DHT22;52203;51.998;5.140;2024-03-06T02:21:24;13.45;118.99
65559;DHT22;52203;51.998;5.140;2024-03-06T02:23:50;13.45;118.99
65559;DHT22;52203;51.998;5.140;2024-03-06T02:26:17;13.44;118.99
65559;DHT22;52203;51.998;5.140;2024-03-06T02:28:50;13.44;118.99
65559;DHT22;52203;51.998;5.140;2024-03-06T02:31:16;13.44;118.99
65559;DHT22;52203;51.998;5.140;2024-03-06T02:33:46;13.44;118.99
65559;DHT22;52203;51.998;5.140;2024-03-06T02:36:12;13.41;118.99
65559;DHT22;52203;51.998;5.140;2024-03-06T02:38:38;13.41;118.99
65559;DHT22;52203;51.998;5.140;2024-03-06T02:41:04;13.40;118.99
65559;DHT22;52203;51.998;5.140;2024-03-06T02:43:32;13.40;118.99
65559;DHT22;52203;51.998;5.140;2024-03-06T02:45:57;13.40;118.99
65559;DHT22;52203;51.998;5.140;2024-03-06T02:48:23;13.40;118.99
65559;DHT22;52203;51.998;5.140;2024-03-06T02:50:48;13.40;118.99
65559;DHT22;52203;51.998;5.140;2024-03-06T02:53:14;13.37;118.99
65559;DHT22;52203;51.998;5.140;2024-03-06T02:55:39;13.39;118.99
65559;DHT22;52203;51.998;5.140;2024-03-06T02:58:05;13.39;118.99
65559;DHT22;52203;51.998;5.140;2024-03-06T03:00:31;13.37;118.99
65559;DHT22;52203;51.998;5.140;2024-03-06T03:02:57;13.39;118.99
65559;DHT22;52203;51.998;5.140;2024-03-06T03:05:23;13.39;118.99
65559;DHT22;52203;51.998;5.140;2024-03-06T03:07:49;13.38;118.99
65559;DHT22;52203;51.998;5.140;2024-03-06T03:10:15;13.37;118.99
65559;DHT22;52203;51.998;5.140;2024-03-06T03:12:41;13.39;118.99
65559;DHT22;52203;51.998;5.140;2024-03-06T03:15:07;13.37;118.99
65559;DHT22;52203;51.998;5.140;2024-03-06T03:17:33;13.36;118.99
65559;DHT22;52203;51.998;5.140;2024-03-06T03:19:59;13.37;118.99
65559;DHT22;52203;51.998;5.140;2024-03-06T03:22:25;13.36;118.99
65559;DHT22;52203;51.998;5.140;2024-03-06T03:24:50;13.35;118.99
65559;DHT22;52203;51.998;5.140;2024-03-06T03:27:16;13.35;118.99
65559;DHT22;52203;51.998;5.140;2024-03-06T03:29:41;13.35;118.99
65559;DHT22;52203;51.998;5.140;2024-03-06T03:32:07;13.35;118.99
65559;DHT22;52203;51.998;5.140;2024-03-06T03:34:34;13.35;118.99
65559;DHT22;52203;51.998;5.140;2024-03-06T03:36:59;13.35;118.99
65559;DHT22;52203;51.998;5.140;2024-03-06T03:39:25;13.34;118.99
65559;DHT22;52203;51.998;5.140;2024-03-06T03:41:52;13.34;118.99
65559;DHT22;52203;51.998;5.140;2024-03-06T03:44:18;13.33;118.99
65559;DHT22;52203;51.998;5.140;2024-03-06T03:46:44;13.35;118.99
65559;DHT22;52203;51.998;5.140;2024-03-06T03:49:10;13.33;118.99
65559;DHT22;52203;51.998;5.140;2024-03-06T03:51:38;13.33;118.99
65559;DHT22;52203;51.998;5.140;2024-03-06T03:54:05;13.32;118.99
65559;DHT22;52203;51.998;5.140;2024-03-06T03:56:31;13.31;118.99
65559;DHT22;52203;51.998;5.140;2024-03-06T03:58:57;13.31;118.99
65559;DHT22;52203;51.998;5.140;2024-03-06T04:01:24;13.31;118.99
65559;DHT22;52203;51.998;5.140;2024-03-06T04:03:50;13.30;118.99
65559;DHT22;52203;51.998;5.140;2024-03-06T04:06:16;13.30;118.99
65559;DHT22;52203;51.998;5.140;2024-03-06T04:08:41;13.30;118.99
65559;DHT22;52203;51.998;5.140;2024-03-06T04:11:09;13.30;118.99
65559;DHT22;52203;51.998;5.140;2024-03-06T04:13:38;13.30;118.99
65559;DHT22;52203;51.998;5.140;2024-03-06T04:16:04;13.29;118.99
65559;DHT22;52203;51.998;5.140;2024-03-06T04:18:31;13.29;118.99
65559;DHT22;52203;51.998;5.140;2024-03-06T04:21:06;13.27;118.99
65559;DHT22;52203;51.998;5.140;2024-03-06T04:23:34;13.27;118.99
65559;DHT22;52203;51.998;5.140;2024-03-06T04:26:01;13.27;118.99
65559;DHT22;52203;51.998;5.140;2024-03-06T04:28:26;13.27;118.99
65559;DHT22;52203;51.998;5.140;2024-03-06T04:30:52;13.27;118.99
65559;DHT22;52203;51.998;5.140;2024-03-06T04:33:17;13.26;118.99
65559;DHT22;52203;51.998;5.140;2024-03-06T04:35:43;13.26;118.99
65559;DHT22;52203;51.998;5.140;2024-03-06T04:38:08;13.26;118.99
65559;DHT22;52203;51.998;5.140;2024-03-06T04:40:34;13.25;118.99
65559;DHT22;52203;51.998;5.140;2024-03-06T04:43:02;13.26;118.99
65559;DHT22;52203;51.998;5.140;2024-03-06T04:45:28;13.33;118.99
65559;DHT22;52203;51.998;5.140;2024-03-06T04:47:54;13.36;118.99
65559;DHT22;52203;51.998;5.140;2024-03-06T04:50:19;13.34;118.99
65559;DHT22;52203;51.998;5.140;2024-03-06T04:52:45;13.30;118.99
65559;DHT22;52203;51.998;5.140;2024-03-06T04:55:11;13.29;118.99
65559;DHT22;52203;51.998;5.140;2024-03-06T04:57:38;13.30;118.99
65559;DHT22;52203;51.998;5.140;2024-03-06T05:00:08;13.31;118.99
65559;DHT22;52203;51.998;5.140;2024-03-06T05:02:34;13.30;118.99
65559;DHT22;52203;51.998;5.140;2024-03-06T05:05:03;13.29;118.99
65559;DHT22;52203;51.998;5.140;2024-03-06T05:07:30;13.27;118.99
65559;DHT22;52203;51.998;5.140;2024-03-06T05:09:56;13.30;118.99
65559;DHT22;52203;51.998;5.140;2024-03-06T05:12:25;13.30;118.99
65559;DHT22;52203;51.998;5.140;2024-03-06T05:14:51;13.29;118.99
65559;DHT22;52203;51.998;5.140;2024-03-06T05:17:17;13.30;118.99
65559;DHT22;52203;51.998;5.140;2024-03-06T05:19:44;13.29;118.99
65559;DHT22;52203;51.998;5.140;2024-03-06T05:22:10;13.27;118.99
65559;DHT22;52203;51.998;5.140;2024-03-06T05:24:37;13.29;118.99
65559;DHT22;52203;51.998;5.140;2024-03-06T05:27:03;13.27;118.99
65559;DHT22;52203;51.998;5.140;2024-03-06T05:29:28;13.27;118.99
65559;DHT22;52203;51.998;5.140;2024-03-06T05:31:54;13.29;118.99
65559;DHT22;52203;51.998;5.140;2024-03-06T05:34:21;13.27;118.99
65559;DHT22;52203;51.998;5.140;2024-03-06T05:36:47;13.27;118.99
65559;DHT22;52203;51.998;5.140;2024-03-06T05:39:13;13.27;118.99
65559;DHT22;52203;51.998;5.140;2024-03-06T05:41:39;13.32;118.99
65559;DHT22;52203;51.998;5.140;2024-03-06T05:44:07;13.31;118.99
65559;DHT22;52203;51.998;5.140;2024-03-06T05:46:33;13.29;118.99
65559;DHT22;52203;51.998;5.140;2024-03-06T05:49:01;13.29;118.99
65559;DHT22;52203;51.998;5.140;2024-03-06T05:51:28;13.30;118.99
65559;DHT22;52203;51.998;5.140;2024-03-06T05:53:54;13.29;118.99
65559;DHT22;52203;51.998;5.140;2024-03-06T05:56:20;13.30;118.99
65559;DHT22;52203;51.998;5.140;2024-03-06T05:58:46;13.29;118.99
65559;DHT22;52203;51.998;5.140;2024-03-06T06:01:17;13.29;118.99
65559;DHT22;52203;51.998;5.140;2024-03-06T06:03:50;13.29;118.99
65559;DHT22;52203;51.998;5.140;2024-03-06T06:06:17;13.27;118.99
65559;DHT22;52203;51.998;5.140;2024-03-06T06:08:43;13.29;118.99
65559;DHT22;52203;51.998;5.140;2024-03-06T06:11:11;13.29;118.99
65559;DHT22;52203;51.998;5.140;2024-03-06T06:13:38;13.30;118.99
65559;DHT22;52203;51.998;5.140;2024-03-06T06:16:06;13.29;118.99
65559;DHT22;52203;51.998;5.140;2024-03-06T06:18:32;13.31;118.99
65559;DHT22;52203;51.998;5.140;2024-03-06T06:20:59;13.31;118.99
65559;DHT22;52203;51.998;5.140;2024-03-06T06:23:25;13.29;118.99
65559;DHT22;52203;51.998;5.140;2024-03-06T06:25:51;13.30;118.99
65559;DHT22;52203;51.998;5.140;2024-03-06T06:28:17;13.30;118.99
65559;DHT22;52203;51.998;5.140;2024-03-06T06:30:43;13.29;118.99
65559;DHT22;52203;51.998;5.140;2024-03-06T06:33:08;13.31;118.99
65559;DHT22;52203;51.998;5.140;2024-03-06T06:35:35;13.29;118.99
65559;DHT22;52203;51.998;5.140;2024-03-06T06:38:01;13.31;118.99
65559;DHT22;52203;51.998;5.140;2024-03-06T06:40:27;13.30;118.99
65559;DHT22;52203;51.998;5.140;2024-03-06T06:42:54;13.35;118.99
65559;DHT22;52203;51.998;5.140;2024-03-06T06:45:20;13.35;118.99
65559;DHT22;52203;51.998;5.140;2024-03-06T06:47:48;13.43;118.99
65559;DHT22;52203;51.998;5.140;2024-03-06T06:50:13;13.46;118.99
65559;DHT22;52203;51.998;5.140;2024-03-06T06:52:39;13.41;118.99
65559;DHT22;52203;51.998;5.140;2024-03-06T06:55:05;13.44;118.99
65559;DHT22;52203;51.998;5.140;2024-03-06T06:57:31;13.44;118.99
65559;DHT22;52203;51.998;5.140;2024-03-06T06:59:59;13.43;118.99
65559;DHT22;52203;51.998;5.140;2024-03-06T07:02:24;13.43;118.99
65559;DHT22;52203;51.998;5.140;2024-03-06T07:04:50;13.44;118.99
65559;DHT22;52203;51.998;5.140;2024-03-06T07:07:16;13.46;118.99
65559;DHT22;52203;51.998;5.140;2024-03-06T07:09:42;13.47;118.99
65559;DHT22;52203;51.998;5.140;2024-03-06T07:12:08;13.45;118.99
65559;DHT22;52203;51.998;5.140;2024-03-06T07:14:34;13.45;118.99
65559;DHT22;52203;51.998;5.140;2024-03-06T07:17:00;13.51;118.99
65559;DHT22;52203;51.998;5.140;2024-03-06T07:19:25;13.50;118.99
65559;DHT22;52203;51.998;5.140;2024-03-06T07:21:51;13.47;118.99
65559;DHT22;52203;51.998;5.140;2024-03-06T07:24:19;13.46;118.99
65559;DHT22;52203;51.998;5.140;2024-03-06T07:26:45;13.43;118.99
65559;DHT22;52203;51.998;5.140;2024-03-06T07:29:10;13.68;118.99
65559;DHT22;52203;51.998;5.140;2024-03-06T07:31:43;13.59;118.99
65559;DHT22;52203;51.998;5.140;2024-03-06T07:34:13;13.56;118.99
65559;DHT22;52203;51.998;5.140;2024-03-06T07:36:40;13.53;118.99
65559;DHT22;52203;51.998;5.140;2024-03-06T07:39:05;13.53;118.99
65559;DHT22;52203;51.998;5.140;2024-03-06T07:41:31;13.64;118.99
65559;DHT22;52203;51.998;5.140;2024-03-06T07:43:59;13.59;118.99
65559;DHT22;52203;51.998;5.140;2024-03-06T07:46:25;13.54;118.99
65559;DHT22;52203;51.998;5.140;2024-03-06T07:48:51;13.51;118.99
65559;DHT22;52203;51.998;5.140;2024-03-06T07:51:17;13.50;118.99
65559;DHT22;52203;51.998;5.140;2024-03-06T07:53:42;13.51;118.99
65559;DHT22;52203;51.998;5.140;2024-03-06T07:56:10;13.52;118.99
65559;DHT22;52203;51.998;5.140;2024-03-06T07:58:37;13.52;118.99
65559;DHT22;52203;51.998;5.140;2024-03-06T08:01:02;13.53;118.99
65559;DHT22;52203;51.998;5.140;2024-03-06T08:03:28;13.53;118.99
65559;DHT22;52203;51.998;5.140;2024-03-06T08:05:54;13.54;118.99
65559;DHT22;52203;51.998;5.140;2024-03-06T08:08:20;13.52;118.99
65559;DHT22;52203;51.998;5.140;2024-03-06T08:10:46;13.52;118.99
65559;DHT22;52203;51.998;5.140;2024-03-06T08:13:11;13.53;118.99
65559;DHT22;52203;51.998;5.140;2024-03-06T08:15:37;13.54;118.99
65559;DHT22;52203;51.998;5.140;2024-03-06T08:18:03;13.58;118.99
65559;DHT22;52203;51.998;5.140;2024-03-06T08:20:31;13.58;118.99
65559;DHT22;52203;51.998;5.140;2024-03-06T08:22:56;13.55;118.99
65559;DHT22;52203;51.998;5.140;2024-03-06T08:25:22;13.59;118.99
65559;DHT22;52203;51.998;5.140;2024-03-06T08:27:48;13.62;118.99
65559;DHT22;52203;51.998;5.140;2024-03-06T08:30:14;13.64;118.99
65559;DHT22;52203;51.998;5.140;2024-03-06T08:32:40;13.65;118.99
65559;DHT22;52203;51.998;5.140;2024-03-06T08:35:08;13.67;118.99
65559;DHT22;52203;51.998;5.140;2024-03-06T08:37:40;13.70;118.99
65559;DHT22;52203;51.998;5.140;2024-03-06T08:40:09;13.69;118.99
65559;DHT22;52203;51.998;5.140;2024-03-06T08:42:46;13.70;118.99
65559;DHT22;52203;51.998;5.140;2024-03-06T08:45:15;13.70;118.99
65559;DHT22;52203;51.998;5.140;2024-03-06T08:47:45;13.73;118.99
65559;DHT22;52203;51.998;5.140;2024-03-06T08:50:11;13.75;118.99
65559;DHT22;52203;51.998;5.140;2024-03-06T08:52:38;13.78;118.99
65559;DHT22;52203;51.998;5.140;2024-03-06T08:55:04;13.81;118.99
65559;DHT22;52203;51.998;5.140;2024-03-06T08:57:31;13.81;118.99
65559;DHT22;52203;51.998;5.140;2024-03-06T08:59:57;13.82;118.99
65559;DHT22;52203;51.998;5.140;2024-03-06T09:02:23;13.85;118.99
65559;DHT22;52203;51.998;5.140;2024-03-06T09:04:49;13.89;118.99
65559;DHT22;52203;51.998;5.140;2024-03-06T09:07:18;13.94;118.99
65559;DHT22;52203;51.998;5.140;2024-03-06T09:09:45;13.98;118.99
65559;DHT22;52203;51.998;5.140;2024-03-06T09:12:10;13.99;118.99
65559;DHT22;52203;51.998;5.140;2024-03-06T09:14:36;13.98;118.99
65559;DHT22;52203;51.998;5.140;2024-03-06T09:17:03;13.98;118.99
65559;DHT22;52203;51.998;5.140;2024-03-06T09:19:29;14.00;118.99
65559;DHT22;52203;51.998;5.140;2024-03-06T09:21:55;14.01;118.99
65559;DHT22;52203;51.998;5.140;2024-03-06T09:24:22;14.01;118.99
65559;DHT22;52203;51.998;5.140;2024-03-06T09:26:54;14.01;118.99
65559;DHT22;52203;51.998;5.140;2024-03-06T09:29:20;13.99;118.99
65559;DHT22;52203;51.998;5.140;2024-03-06T09:31:48;14.00;118.99
65559;DHT22;52203;51.998;5.140;2024-03-06T09:34:14;14.00;118.99
65559;DHT22;52203;51.998;5.140;2024-03-06T09:36:40;14.07;118.99
65559;DHT22;52203;51.998;5.140;2024-03-06T09:39:10;14.10;118.99
65559;DHT22;52203;51.998;5.140;2024-03-06T09:41:36;14.09;118.99
65559;DHT22;52203;51.998;5.140;2024-03-06T09:44:02;14.11;118.99
65559;DHT22;52203;51.998;5.140;2024-03-06T09:46:28;14.10;118.99
65559;DHT22;52203;51.998;5.140;2024-03-06T09:48:54;14.08;118.99
65559;DHT22;52203;51.998;5.140;2024-03-06T09:51:20;14.08;118.99
65559;DHT22;52203;51.998;5.140;2024-03-06T09:53:46;14.09;118.99
65559;DHT22;52203;51.998;5.140;2024-03-06T09:56:17;14.08;118.99
65559;DHT22;52203;51.998;5.140;2024-03-06T09:58:45;14.10;118.99
65559;DHT22;52203;51.998;5.140;2024-03-06T10:01:12;14.12;118.99
65559;DHT22;52203;51.998;5.140;2024-03-06T10:03:38;14.10;118.99
65559;DHT22;52203;51.998;5.140;2024-03-06T10:06:07;14.12;118.99
65559;DHT22;52203;51.998;5.140;2024-03-06T10:08:33;14.13;118.99
65559;DHT22;52203;51.998;5.140;2024-03-06T10:10:59;14.15;118.99
65559;DHT22;52203;51.998;5.140;2024-03-06T10:13:25;14.17;118.99
65559;DHT22;52203;51.998;5.140;2024-03-06T10:15:58;14.18;118.99
65559;DHT22;52203;51.998;5.140;2024-03-06T10:18:27;14.20;118.99
65559;DHT22;52203;51.998;5.140;2024-03-06T10:20:53;14.21;118.99
65559;DHT22;52203;51.998;5.140;2024-03-06T10:23:19;14.20;118.99
65559;DHT22;52203;51.998;5.140;2024-03-06T10:25:45;14.18;118.99
65559;DHT22;52203;51.998;5.140;2024-03-06T10:28:11;14.17;118.99
65559;DHT22;52203;51.998;5.140;2024-03-06T10:30:38;14.14;118.99
65559;DHT22;52203;51.998;5.140;2024-03-06T10:33:08;14.12;118.99
65559;DHT22;52203;51.998;5.140;2024-03-06T10:35:37;14.12;118.99
65559;DHT22;52203;51.998;5.140;2024-03-06T10:38:05;14.09;118.99
65559;DHT22;52203;51.998;5.140;2024-03-06T10:40:35;14.06;118.99
65559;DHT22;52203;51.998;5.140;2024-03-06T10:43:02;14.01;118.99
65559;DHT22;52203;51.998;5.140;2024-03-06T10:45:47;14.04;118.99
65559;DHT22;52203;51.998;5.140;2024-03-06T10:48:18;14.00;118.99
65559;DHT22;52203;51.998;5.140;2024-03-06T10:50:45;14.00;118.99
65559;DHT22;52203;51.998;5.140;2024-03-06T10:53:17;14.03;118.99
65559;DHT22;52203;51.998;5.140;2024-03-06T10:55:44;14.05;118.99
65559;DHT22;52203;51.998;5.140;2024-03-06T10:58:12;14.06;118.99
65559;DHT22;52203;51.998;5.140;2024-03-06T11:00:44;14.09;118.99
65559;DHT22;52203;51.998;5.140;2024-03-06T11:03:13;14.09;118.99
65559;DHT22;52203;51.998;5.140;2024-03-06T11:05:39;14.09;118.99
65559;DHT22;52203;51.998;5.140;2024-03-06T11:08:15;14.06;118.99
65559;DHT22;52203;51.998;5.140;2024-03-06T11:10:44;13.90;118.99
65559;DHT22;52203;51.998;5.140;2024-03-06T11:15:45;13.78;118.99
65559;DHT22;52203;51.998;5.140;2024-03-06T11:24:14;13.74;118.99
65559;DHT22;52203;51.998;5.140;2024-03-06T11:29:19;13.71;118.99
65559;DHT22;52203;51.998;5.140;2024-03-06T11:32:02;13.63;118.99
65559;DHT22;52203;51.998;5.140;2024-03-06T11:34:30;13.59;118.99
65559;DHT22;52203;51.998;5.140;2024-03-06T11:36:59;13.61;118.99
65559;DHT22;52203;51.998;5.140;2024-03-06T11:39:28;13.65;118.99
65559;DHT22;52203;51.998;5.140;2024-03-06T11:41:55;13.99;118.99
65559;DHT22;52203;51.998;5.140;2024-03-06T11:44:22;13.88;118.99
65559;DHT22;52203;51.998;5.140;2024-03-06T11:46:58;13.80;118.99
65559;DHT22;52203;51.998;5.140;2024-03-06T11:49:28;13.76;118.99
65559;DHT22;52203;51.998;5.140;2024-03-06T11:52:04;13.88;118.99
65559;DHT22;52203;51.998;5.140;2024-03-06T11:54:31;13.82;118.99
65559;DHT22;52203;51.998;5.140;2024-03-06T11:56:58;13.84;118.99
65559;DHT22;52203;51.998;5.140;2024-03-06T11:59:26;13.84;118.99
65559;DHT22;52203;51.998;5.140;2024-03-06T12:01:57;13.89;118.99
65559;DHT22;52203;51.998;5.140;2024-03-06T12:04:24;13.93;118.99
65559;DHT22;52203;51.998;5.140;2024-03-06T12:06:50;13.95;118.99
65559;DHT22;52203;51.998;5.140;2024-03-06T12:09:15;13.92;118.99
65559;DHT22;52203;51.998;5.140;2024-03-06T12:11:42;13.89;118.99
65559;DHT22;52203;51.998;5.140;2024-03-06T12:14:17;13.83;118.99
65559;DHT22;52203;51.998;5.140;2024-03-06T12:16:44;13.99;118.99
65559;DHT22;52203;51.998;5.140;2024-03-06T12:19:09;14.09;118.99
65559;DHT22;52203;51.998;5.140;2024-03-06T12:21:35;14.14;118.99
65559;DHT22;52203;51.998;5.140;2024-03-06T12:24:09;14.12;118.99
65559;DHT22;52203;51.998;5.140;2024-03-06T12:26:36;14.27;118.99
65559;DHT22;52203;51.998;5.140;2024-03-06T12:29:09;14.18;118.99
65559;DHT22;52203;51.998;5.140;2024-03-06T12:31:36;14.19;118.99
65559;DHT22;52203;51.998;5.140;2024-03-06T12:34:03;14.19;118.99
65559;DHT22;52203;51.998;5.140;2024-03-06T12:36:29;14.35;118.99
65559;DHT22;52203;51.998;5.140;2024-03-06T12:38:59;14.39;118.99
65559;DHT22;52203;51.998;5.140;2024-03-06T12:41:26;14.37;118.99
65559;DHT22;52203;51.998;5.140;2024-03-06T12:43:52;14.36;118.99
65559;DHT22;52203;51.998;5.140;2024-03-06T12:46:18;14.41;118.99
65559;DHT22;52203;51.998;5.140;2024-03-06T12:48:44;14.43;118.99
65559;DHT22;52203;51.998;5.140;2024-03-06T12:51:10;14.47;118.99
65559;DHT22;52203;51.998;5.140;2024-03-06T12:53:35;14.55;118.99
65559;DHT22;52203;51.998;5.140;2024-03-06T12:56:01;14.51;118.99
65559;DHT22;52203;51.998;5.140;2024-03-06T12:58:27;14.58;118.99
65559;DHT22;52203;51.998;5.140;2024-03-06T13:00:52;14.64;118.99
65559;DHT22;52203;51.998;5.140;2024-03-06T13:03:19;14.65;118.99
65559;DHT22;52203;51.998;5.140;2024-03-06T13:05:45;14.77;118.99
65559;DHT22;52203;51.998;5.140;2024-03-06T13:08:11;14.74;118.99
65559;DHT22;52203;51.998;5.140;2024-03-06T13:10:40;14.86;118.99
65559;DHT22;52203;51.998;5.140;2024-03-06T13:13:05;14.82;118.99
65559;DHT22;52203;51.998;5.140;2024-03-06T13:15:32;14.88;118.99
65559;DHT22;52203;51.998;5.140;2024-03-06T13:18:02;14.93;118.99
65559;DHT22;52203;51.998;5.140;2024-03-06T13:20:30;14.99;118.99
65559;DHT22;52203;51.998;5.140;2024-03-06T13:22:56;14.92;118.99
65559;DHT22;52203;51.998;5.140;2024-03-06T13:25:22;14.96;118.99
65559;DHT22;52203;51.998;5.140;2024-03-06T13:27:47;15.00;118.99
65559;DHT22;52203;51.998;5.140;2024-03-06T13:30:13;15.07;118.99
65559;DHT22;52203;51.998;5.140;2024-03-06T13:32:39;15.08;118.99
65559;DHT22;52203;51.998;5.140;2024-03-06T13:35:05;15.13;118.99
65559;DHT22;52203;51.998;5.140;2024-03-06T13:37:38;15.16;118.99
65559;DHT22;52203;51.998;5.140;2024-03-06T13:40:04;15.18;118.99
65559;DHT22;52203;51.998;5.140;2024-03-06T13:42:32;15.17;118.99
65559;DHT22;52203;51.998;5.140;2024-03-06T13:44:58;15.13;118.99
65559;DHT22;52203;51.998;5.140;2024-03-06T13:47:23;15.18;118.99
65559;DHT22;52203;51.998;5.140;2024-03-06T13:49:49;15.22;118.99
65559;DHT22;52203;51.998;5.140;2024-03-06T13:52:15;15.11;118.99
65559;DHT22;52203;51.998;5.140;2024-03-06T13:54:45;14.99;118.99
65559;DHT22;52203;51.998;5.140;2024-03-06T13:57:11;15.00;118.99
65559;DHT22;52203;51.998;5.140;2024-03-06T13:59:36;15.03;118.99
65559;DHT22;52203;51.998;5.140;2024-03-06T14:02:06;14.98;118.99
65559;DHT22;52203;51.998;5.140;2024-03-06T14:04:32;15.12;118.99
65559;DHT22;52203;51.998;5.140;2024-03-06T14:06:57;15.25;118.99
65559;DHT22;52203;51.998;5.140;2024-03-06T14:09:25;15.32;118.99
65559;DHT22;52203;51.998;5.140;2024-03-06T14:11:52;15.34;118.99
65559;DHT22;52203;51.998;5.140;2024-03-06T14:14:18;15.33;118.99
65559;DHT22;52203;51.998;5.140;2024-03-06T14:16:47;15.30;118.99
65559;DHT22;52203;51.998;5.140;2024-03-06T14:19:13;15.25;118.99
65559;DHT22;52203;51.998;5.140;2024-03-06T14:21:39;15.23;118.99
65559;DHT22;52203;51.998;5.140;2024-03-06T14:24:05;15.45;118.99
65559;DHT22;52203;51.998;5.140;2024-03-06T14:26:34;15.39;118.99
65559;DHT22;52203;51.998;5.140;2024-03-06T14:29:00;15.47;118.99
65559;DHT22;52203;51.998;5.140;2024-03-06T14:31:27;15.46;118.99
65559;DHT22;52203;51.998;5.140;2024-03-06T14:33:53;15.40;118.99
65559;DHT22;52203;51.998;5.140;2024-03-06T14:36:18;15.49;118.99
65559;DHT22;52203;51.998;5.140;2024-03-06T14:38:47;15.53;118.99
65559;DHT22;52203;51.998;5.140;2024-03-06T14:41:12;15.47;118.99
65559;DHT22;52203;51.998;5.140;2024-03-06T14:43:38;15.52;118.99
65559;DHT22;52203;51.998;5.140;2024-03-06T14:46:05;15.58;118.99
65559;DHT22;52203;51.998;5.140;2024-03-06T14:48:31;15.42;118.99
65559;DHT22;52203;51.998;5.140;2024-03-06T14:50:57;15.32;118.99
65559;DHT22;52203;51.998;5.140;2024-03-06T14:53:25;15.25;118.99
65559;DHT22;52203;51.998;5.140;2024-03-06T14:55:51;15.22;118.99
65559;DHT22;52203;51.998;5.140;2024-03-06T14:58:16;15.23;118.99
65559;DHT22;52203;51.998;5.140;2024-03-06T15:00:42;15.21;118.99
65559;DHT22;52203;51.998;5.140;2024-03-06T15:03:08;15.13;118.99
65559;DHT22;52203;51.998;5.140;2024-03-06T15:05:34;15.10;118.99
65559;DHT22;52203;51.998;5.140;2024-03-06T15:08:01;15.03;118.99
65559;DHT22;52203;51.998;5.140;2024-03-06T15:10:29;15.00;118.99
65559;DHT22;52203;51.998;5.140;2024-03-06T15:12:57;14.98;118.99
65559;DHT22;52203;51.998;5.140;2024-03-06T15:15:22;14.96;118.99
65559;DHT22;52203;51.998;5.140;2024-03-06T15:17:48;14.94;118.99
65559;DHT22;52203;51.998;5.140;2024-03-06T15:20:13;14.89;118.99
65559;DHT22;52203;51.998;5.140;2024-03-06T15:22:39;14.91;118.99
65559;DHT22;52203;51.998;5.140;2024-03-06T15:25:08;14.91;118.99